Time;durP1;ratioP1;P1;durP2;ratioP2;P2;SDS_P1;SDS_P2;PMS_P1;PMS_P2;Temp;Humidity;BMP_temperature;BMP_pressure;BME280_temperature;BME280_humidity;BME280_pressure;Samples;Min_cycle;Max_cycle;Signal;HPM_P1;HPM_P2
2023/01/22 00:01:09;;;;;;;9.98;7.22;;;6.20;67.10;;;;;;5117135;28;20547;-70
2023/01/22 00:03:36;;;;;;;8.90;6.82;;;6.20;67.10;;;;;;5118128;28;20252;-71
2023/01/22 00:06:03;;;;;;;9.57;6.90;;;6.20;67.20;;;;;;5118178;28;20290;-71
2023/01/22 00:08:30;;;;;;;10.43;7.88;;;6.20;66.90;;;;;;5117559;28;20298;-71
2023/01/22 00:10:58;;;;;;;8.63;6.85;;;6.20;67.00;;;;;;5118525;28;20238;-71
2023/01/22 00:13:26;;;;;;;9.75;7.07;;;6.20;67.00;;;;;;5118651;28;20249;-71
2023/01/22 00:15:54;;;;;;;9.88;7.15;;;6.20;67.00;;;;;;5118178;28;20310;-72
2023/01/22 00:18:21;;;;;;;10.73;7.22;;;6.20;67.00;;;;;;5118753;28;20268;-71
2023/01/22 00:20:49;;;;;;;10.75;7.22;;;6.20;67.00;;;;;;5117248;28;20740;-71
2023/01/22 00:23:16;;;;;;;10.55;7.63;;;6.20;67.00;;;;;;5118342;28;20622;-73
2023/01/22 00:25:43;;;;;;;11.57;7.28;;;6.20;66.90;;;;;;5117968;28;20184;-72
2023/01/22 00:28:12;;;;;;;10.80;8.07;;;6.20;66.90;;;;;;5118547;28;20238;-70
2023/01/22 00:30:39;;;;;;;9.65;7.30;;;6.20;67.00;;;;;;5117971;28;20295;-71
2023/01/22 00:33:06;;;;;;;9.38;7.65;;;6.20;66.90;;;;;;5077757;28;20629;-71
2023/01/22 00:35:34;;;;;;;9.15;7.30;;;6.20;66.80;;;;;;5076570;28;20717;-71
2023/01/22 00:38:02;;;;;;;8.73;7.10;;;6.20;67.00;;;;;;5077762;28;20284;-71
2023/01/22 00:40:29;;;;;;;9.90;7.53;;;6.20;67.40;;;;;;5076670;28;20216;-72
2023/01/22 00:42:56;;;;;;;11.10;8.27;;;6.20;67.00;;;;;;5077591;28;20236;-72
2023/01/22 00:45:24;;;;;;;11.73;8.23;;;6.20;67.00;;;;;;5077733;28;20287;-73
2023/01/22 00:47:51;;;;;;;8.95;7.18;;;6.20;67.00;;;;;;5077237;28;20216;-72
2023/01/22 00:50:18;;;;;;;10.32;7.80;;;6.20;67.00;;;;;;5076818;28;20212;-73
2023/01/22 00:52:45;;;;;;;9.32;7.03;;;6.20;67.10;;;;;;5077061;28;20217;-73
2023/01/22 00:55:12;;;;;;;10.00;7.15;;;6.20;67.20;;;;;;5078781;28;20301;-71
2023/01/22 00:57:39;;;;;;;9.88;7.63;;;6.20;67.20;;;;;;5078006;28;20236;-72
2023/01/22 01:00:07;;;;;;;10.82;7.80;;;6.20;67.20;;;;;;5078635;28;20209;-72
2023/01/22 01:03:25;;;;;;;10.57;7.65;;;6.20;67.40;;;;;;5078031;28;20290;-71
2023/01/22 01:05:24;;;;;;;10.07;7.60;;;6.10;67.40;;;;;;5077187;28;20680;-72
2023/01/22 01:07:51;;;;;;;9.73;7.07;;;6.10;67.40;;;;;;5077419;28;20735;-73
2023/01/22 01:10:18;;;;;;;9.85;7.45;;;6.10;67.40;;;;;;5078440;28;20258;-72
2023/01/22 01:12:45;;;;;;;10.07;7.82;;;6.20;67.40;;;;;;5073050;28;20288;-72
2023/01/22 01:15:12;;;;;;;10.60;8.07;;;6.10;67.20;;;;;;5073999;28;20333;-72
2023/01/22 01:17:40;;;;;;;10.20;7.88;;;6.10;67.10;;;;;;5073768;28;20580;-71
2023/01/22 01:20:08;;;;;;;10.25;7.57;;;6.10;67.00;;;;;;5073875;28;20278;-72
2023/01/22 01:22:35;;;;;;;10.63;7.78;;;6.10;67.00;;;;;;5073107;28;20299;-72
2023/01/22 01:25:02;;;;;;;9.18;7.72;;;6.10;67.00;;;;;;5073611;28;20278;-73
2023/01/22 01:27:30;;;;;;;12.80;8.18;;;6.10;67.00;;;;;;5073837;28;20211;-72
2023/01/22 01:29:57;;;;;;;11.27;7.88;;;6.20;67.00;;;;;;5074151;28;20212;-71
2023/01/22 01:32:24;;;;;;;10.02;7.75;;;6.10;66.90;;;;;;5102906;28;20206;-71
2023/01/22 01:34:52;;;;;;;10.77;8.18;;;6.10;66.90;;;;;;5113440;28;20258;-71
2023/01/22 01:37:19;;;;;;;10.52;7.57;;;6.10;66.90;;;;;;5114223;28;20200;-72
2023/01/22 01:39:46;;;;;;;10.20;7.65;;;6.20;67.10;;;;;;5113983;28;20212;-72
2023/01/22 01:42:13;;;;;;;9.73;7.28;;;6.20;67.10;;;;;;5114393;28;20223;-71
2023/01/22 01:44:42;;;;;;;11.57;7.88;;;6.20;67.20;;;;;;5113656;28;20619;-71
2023/01/22 01:47:26;;;;;;;10.70;8.07;;;6.30;68.20;;;;;;5113943;28;20290;-71
2023/01/22 01:49:55;;;;;;;11.13;8.02;;;6.20;67.40;;;;;;5113894;28;20353;-71
2023/01/22 01:52:21;;;;;;;10.82;8.18;;;6.20;67.30;;;;;;5113841;28;20208;-71
2023/01/22 01:54:51;;;;;;;11.82;8.35;;;6.20;67.30;;;;;;5112905;28;20684;-71
2023/01/22 01:57:24;;;;;;;15.88;8.63;;;6.20;67.30;;;;;;5113926;28;20210;-71
2023/01/22 01:59:52;;;;;;;12.10;8.57;;;6.20;67.30;;;;;;5113127;28;20194;-71
2023/01/22 02:02:20;;;;;;;11.60;8.52;;;6.20;68.10;;;;;;5113587;28;20286;-72
2023/01/22 02:04:47;;;;;;;10.93;8.65;;;6.30;67.30;;;;;;5113514;28;20204;-71
2023/01/22 02:07:16;;;;;;;11.75;8.55;;;6.20;67.10;;;;;;5113713;28;20290;-71
2023/01/22 02:09:43;;;;;;;12.35;8.48;;;6.20;67.30;;;;;;5113297;28;20239;-71
2023/01/22 02:12:10;;;;;;;9.50;7.88;;;6.30;68.10;;;;;;5113828;28;20644;-71
2023/01/22 02:14:44;;;;;;;11.70;9.05;;;6.20;67.20;;;;;;5113145;28;20234;-70
2023/01/22 02:17:14;;;;;;;11.15;8.50;;;6.30;67.50;;;;;;5113408;28;20230;-71
2023/01/22 02:19:42;;;;;;;12.20;8.95;;;6.30;67.40;;;;;;5113085;28;20203;-71
2023/01/22 02:22:15;;;;;;;11.30;8.40;;;6.30;67.40;;;;;;5113419;28;20299;-72
2023/01/22 02:24:42;;;;;;;13.98;9.35;;;6.30;67.50;;;;;;5112425;28;20259;-71
2023/01/22 02:27:09;;;;;;;11.02;8.98;;;6.30;67.20;;;;;;5113170;28;20685;-71
2023/01/22 02:29:36;;;;;;;12.10;9.23;;;6.30;67.20;;;;;;5112965;28;20214;-71
2023/01/22 02:32:04;;;;;;;11.60;8.80;;;6.30;67.30;;;;;;5101167;28;20295;-71
2023/01/22 02:34:31;;;;;;;10.65;7.97;;;6.30;67.30;;;;;;5092644;28;20293;-72
2023/01/22 02:37:00;;;;;;;11.70;9.00;;;6.40;67.20;;;;;;5092170;28;20673;-71
2023/01/22 02:39:29;;;;;;;13.27;9.35;;;6.30;67.20;;;;;;5092886;28;20621;-72
2023/01/22 02:41:56;;;;;;;11.40;8.65;;;6.30;67.10;;;;;;5092542;28;20212;-71
2023/01/22 02:44:23;;;;;;;13.13;9.07;;;6.40;67.40;;;;;;5092821;28;20207;-71
2023/01/22 02:46:50;;;;;;;12.10;9.02;;;6.40;67.50;;;;;;5091627;28;20565;-72
2023/01/22 02:49:17;;;;;;;13.10;9.30;;;6.30;67.40;;;;;;5092688;28;20240;-70
2023/01/22 02:51:44;;;;;;;11.32;8.93;;;6.40;67.50;;;;;;5091802;28;20677;-72
2023/01/22 02:54:11;;;;;;;12.38;9.25;;;6.40;67.60;;;;;;5092011;28;20684;-72
2023/01/22 02:56:39;;;;;;;12.38;8.88;;;6.40;67.70;;;;;;5091932;28;20205;-72
2023/01/22 02:59:06;;;;;;;10.73;8.13;;;6.40;67.70;;;;;;5092486;28;20205;-71
2023/01/22 03:01:35;;;;;;;12.48;9.20;;;6.40;67.70;;;;;;5091649;28;20297;-73
2023/01/22 03:04:09;;;;;;;11.88;8.70;;;6.40;67.50;;;;;;5092330;28;20571;-72
2023/01/22 03:06:38;;;;;;;12.65;9.07;;;6.40;67.80;;;;;;5091675;28;20637;-70
2023/01/22 03:09:05;;;;;;;12.65;9.07;;;6.30;67.60;;;;;;5092413;28;20232;-71
2023/01/22 03:11:34;;;;;;;11.68;8.82;;;6.40;67.70;;;;;;5092012;28;20208;-71
2023/01/22 03:22:17;;;;;;;13.18;9.10;;;6.40;67.90;;;;;;5092040;28;20222;-71
2023/01/22 03:24:49;;;;;;;12.70;9.10;;;6.30;67.90;;;;;;5091133;28;20696;-71
2023/01/22 03:27:16;;;;;;;12.70;9.18;;;6.40;67.80;;;;;;5091742;28;20189;-72
2023/01/22 03:29:44;;;;;;;13.65;9.25;;;6.40;67.90;;;;;;5091087;28;20295;-72
2023/01/22 03:32:12;;;;;;;12.07;8.55;;;6.40;67.90;;;;;;5104946;28;20200;-72
2023/01/22 03:34:39;;;;;;;11.40;8.95;;;6.40;67.90;;;;;;5110321;28;20230;-72
2023/01/22 03:37:06;;;;;;;13.38;9.32;;;6.50;68.00;;;;;;5112043;28;20204;-72
2023/01/22 03:39:34;;;;;;;12.48;8.88;;;6.40;67.80;;;;;;5111948;28;20240;-71
2023/01/22 03:42:00;;;;;;;12.40;8.65;;;6.40;67.80;;;;;;5111225;28;20214;-72
2023/01/22 03:44:27;;;;;;;12.48;8.82;;;6.40;67.70;;;;;;5111733;28;20203;-72
2023/01/22 03:46:56;;;;;;;15.35;9.07;;;6.40;67.80;;;;;;5111472;28;20203;-72
2023/01/22 03:49:25;;;;;;;13.07;9.02;;;6.40;67.80;;;;;;5112034;28;20257;-72
2023/01/22 03:51:52;;;;;;;11.23;9.05;;;6.40;67.70;;;;;;5111748;28;20208;-72
2023/01/22 03:54:19;;;;;;;10.40;8.30;;;6.40;67.80;;;;;;5112128;28;20242;-72
2023/01/22 03:56:46;;;;;;;11.25;9.02;;;6.50;68.00;;;;;;5111411;28;20408;-72
2023/01/22 03:59:16;;;;;;;11.38;8.85;;;6.50;68.00;;;;;;5111308;28;20294;-72
2023/01/22 04:01:43;;;;;;;12.98;8.60;;;6.50;67.90;;;;;;5111146;28;20208;-72
2023/01/22 04:04:11;;;;;;;12.90;9.60;;;6.50;67.90;;;;;;5112002;28;20659;-72
2023/01/22 04:06:38;;;;;;;11.75;8.60;;;6.40;67.90;;;;;;5111927;28;20572;-72
2023/01/22 04:09:05;;;;;;;11.18;8.57;;;6.50;67.90;;;;;;5111747;28;20306;-72
2023/01/22 04:11:32;;;;;;;13.35;9.52;;;6.50;68.00;;;;;;5111510;28;20253;-72
2023/01/22 04:13:58;;;;;;;12.02;8.65;;;6.50;68.00;;;;;;5110852;28;20331;-72
2023/01/22 04:16:25;;;;;;;11.60;8.48;;;6.50;68.00;;;;;;5111529;28;20599;-71
2023/01/22 04:18:52;;;;;;;13.07;9.35;;;6.50;68.00;;;;;;5111242;28;20208;-73
2023/01/22 04:21:21;;;;;;;10.60;8.52;;;6.50;68.20;;;;;;5111856;28;20298;-71
2023/01/22 04:23:47;;;;;;;13.18;8.90;;;6.50;68.10;;;;;;5110609;28;20243;-72
2023/01/22 04:26:15;;;;;;;11.98;8.50;;;6.50;68.20;;;;;;5111497;28;20290;-71
2023/01/22 04:28:41;;;;;;;11.52;8.73;;;6.40;68.20;;;;;;5110739;28;20287;-72
2023/01/22 04:31:08;;;;;;;12.32;8.75;;;6.50;68.50;;;;;;5107045;28;20197;-72
2023/01/22 04:33:36;;;;;;;14.43;9.80;;;6.50;68.20;;;;;;5091508;28;20570;-72
2023/01/22 04:36:03;;;;;;;13.10;9.25;;;6.50;68.30;;;;;;5090335;28;20310;-71
2023/01/22 04:38:31;;;;;;;11.77;8.93;;;6.40;68.10;;;;;;5091218;28;20620;-72
2023/01/22 04:40:58;;;;;;;12.63;9.43;;;6.50;68.30;;;;;;5090704;28;20296;-72
2023/01/22 04:43:25;;;;;;;12.07;8.93;;;6.50;68.40;;;;;;5090676;28;20668;-72
2023/01/22 04:45:52;;;;;;;13.02;9.20;;;6.50;68.40;;;;;;5090662;28;20232;-72
2023/01/22 04:48:19;;;;;;;12.73;9.45;;;6.60;68.50;;;;;;5095002;28;20208;-72
2023/01/22 04:50:47;;;;;;;11.43;8.30;;;6.60;68.40;;;;;;5094370;28;20299;-71
2023/01/22 04:53:14;;;;;;;14.30;9.07;;;6.50;68.50;;;;;;5094779;28;20307;-71
2023/01/22 04:55:42;;;;;;;11.48;8.63;;;6.50;68.40;;;;;;5094638;28;20305;-71
2023/01/22 04:58:09;;;;;;;10.48;7.63;;;6.50;68.50;;;;;;5094146;28;20205;-71
2023/01/22 05:00:36;;;;;;;11.82;8.65;;;6.50;68.50;;;;;;5094671;28;20573;-72
2023/01/22 05:03:04;;;;;;;12.15;9.15;;;6.50;68.50;;;;;;5094314;28;20585;-73
2023/01/22 05:05:33;;;;;;;12.63;8.90;;;6.50;68.60;;;;;;5094319;28;20291;-70
2023/01/22 05:08:00;;;;;;;12.45;8.13;;;6.50;68.60;;;;;;5093966;28;20296;-72
2023/01/22 05:10:27;;;;;;;10.50;8.35;;;6.50;68.70;;;;;;5094405;28;20644;-71
2023/01/22 05:12:57;;;;;;;11.40;8.18;;;6.50;68.50;;;;;;5093553;28;20248;-70
2023/01/22 05:15:24;;;;;;;11.25;8.82;;;6.50;68.50;;;;;;5094273;28;20232;-71
2023/01/22 05:17:51;;;;;;;12.25;8.07;;;6.50;68.50;;;;;;5093962;28;20214;-71
2023/01/22 05:20:18;;;;;;;10.48;8.48;;;6.50;68.40;;;;;;5094330;28;20208;-71
2023/01/22 05:22:45;;;;;;;14.02;8.43;;;6.60;68.50;;;;;;5093684;28;20208;-73
2023/01/22 05:25:12;;;;;;;11.07;7.97;;;6.50;68.40;;;;;;5093573;28;20236;-73
2023/01/22 05:27:39;;;;;;;11.18;7.55;;;6.50;69.10;;;;;;5094192;28;20230;-72
2023/01/22 05:30:10;;;;;;;11.55;8.43;;;6.60;68.50;;;;;;5093629;28;20209;-71
2023/01/22 05:32:36;;;;;;;12.35;8.02;;;6.60;68.50;;;;;;5092648;28;20287;-71
2023/01/22 05:35:04;;;;;;;11.48;8.68;;;6.50;68.40;;;;;;5114102;28;20683;-73
2023/01/22 05:37:31;;;;;;;11.38;8.40;;;6.60;68.50;;;;;;5114571;28;20286;-71
2023/01/22 05:39:58;;;;;;;12.55;9.00;;;6.60;68.60;;;;;;5113337;28;20211;-72
2023/01/22 05:42:25;;;;;;;11.05;8.50;;;6.60;68.40;;;;;;5114114;28;20203;-72
2023/01/22 05:44:52;;;;;;;10.52;8.52;;;6.60;68.40;;;;;;5113787;28;20200;-72
2023/01/22 05:47:20;;;;;;;12.18;8.57;;;6.60;68.50;;;;;;5114141;28;20204;-72
2023/01/22 05:49:47;;;;;;;10.43;7.85;;;6.60;68.60;;;;;;5113707;28;20203;-72
2023/01/22 05:52:14;;;;;;;10.90;7.78;;;6.60;69.20;;;;;;5114274;28;20612;-72
2023/01/22 05:54:41;;;;;;;11.65;8.50;;;6.60;68.40;;;;;;5113591;28;20204;-72
2023/01/22 05:57:08;;;;;;;11.65;8.25;;;6.60;68.40;;;;;;5113300;28;20240;-72
2023/01/22 05:59:35;;;;;;;11.85;8.65;;;6.60;68.40;;;;;;5113236;28;20200;-72
2023/01/22 06:02:02;;;;;;;10.80;8.27;;;6.60;68.40;;;;;;5113109;28;20667;-72
2023/01/22 06:04:30;;;;;;;12.65;8.77;;;6.60;68.40;;;;;;5113937;28;20207;-72
2023/01/22 06:06:57;;;;;;;11.43;8.35;;;6.60;68.40;;;;;;5113066;28;20208;-72
2023/01/22 06:09:24;;;;;;;11.18;7.80;;;6.60;68.40;;;;;;5113451;28;20199;-72
2023/01/22 06:11:51;;;;;;;10.90;8.40;;;6.60;68.50;;;;;;5113011;28;20204;-72
2023/01/22 06:14:18;;;;;;;12.55;8.48;;;6.70;68.60;;;;;;5113818;28;20204;-72
2023/01/22 06:16:45;;;;;;;10.15;8.10;;;6.60;68.60;;;;;;5112737;28;20699;-73
2023/01/22 06:19:12;;;;;;;10.45;8.23;;;6.60;68.60;;;;;;5113349;28;20199;-72
2023/01/22 06:21:42;;;;;;;9.45;7.80;;;6.60;68.80;;;;;;5113815;28;20204;-73
2023/01/22 06:24:09;;;;;;;9.48;7.57;;;6.60;68.90;;;;;;5112243;28;20232;-71
2023/01/22 06:26:36;;;;;;;9.13;7.60;;;6.60;68.90;;;;;;5113432;28;20734;-72
2023/01/22 06:29:03;;;;;;;8.57;6.88;;;6.60;68.90;;;;;;5113072;28;20578;-71
2023/01/22 06:31:31;;;;;;;8.50;7.13;;;6.60;69.00;;;;;;5105936;28;20205;-71
2023/01/22 06:33:58;;;;;;;10.32;7.43;;;6.60;69.00;;;;;;5092171;28;20209;-71
2023/01/22 06:36:25;;;;;;;9.43;7.47;;;6.60;69.00;;;;;;5092582;28;20220;-71
2023/01/22 06:38:56;;;;;;;9.65;7.55;;;6.60;69.00;;;;;;5091838;28;20261;-71
2023/01/22 06:41:23;;;;;;;9.23;7.35;;;6.70;69.10;;;;;;5093064;28;20605;-71
2023/01/22 06:43:50;;;;;;;8.93;7.30;;;6.70;69.10;;;;;;5092292;28;20211;-71
2023/01/22 06:46:17;;;;;;;11.07;7.05;;;6.60;68.90;;;;;;5092702;28;20201;-72
2023/01/22 06:48:45;;;;;;;9.05;7.25;;;6.70;68.90;;;;;;5093739;28;20201;-72
2023/01/22 06:51:12;;;;;;;9.50;6.78;;;6.70;69.00;;;;;;5092145;28;20289;-71
2023/01/22 06:53:39;;;;;;;9.30;7.18;;;6.70;69.10;;;;;;5092307;28;20204;-71
2023/01/22 06:56:08;;;;;;;9.35;7.30;;;6.70;69.20;;;;;;5091844;28;20624;-71
2023/01/22 06:58:35;;;;;;;8.55;6.53;;;6.70;69.10;;;;;;5092107;28;20206;-71
2023/01/22 07:01:03;;;;;;;8.90;6.35;;;6.70;68.90;;;;;;5091930;28;20291;-71
2023/01/22 07:03:33;;;;;;;8.50;6.72;;;6.70;69.10;;;;;;5092506;28;20617;-70
2023/01/22 07:06:02;;;;;;;8.70;7.15;;;6.70;68.90;;;;;;5091461;28;20232;-71
2023/01/22 07:08:30;;;;;;;8.90;6.95;;;6.80;69.20;;;;;;5091964;28;20208;-71
2023/01/22 07:10:57;;;;;;;8.73;6.72;;;6.70;69.90;;;;;;5090808;28;20621;-71
2023/01/22 07:13:25;;;;;;;8.52;6.82;;;6.70;69.10;;;;;;5092236;28;20246;-72
2023/01/22 07:15:52;;;;;;;8.60;7.15;;;6.70;69.20;;;;;;5091311;28;20681;-71
2023/01/22 07:18:22;;;;;;;8.32;7.13;;;6.70;69.20;;;;;;5092179;28;20231;-72
2023/01/22 07:20:49;;;;;;;8.30;6.30;;;6.70;69.30;;;;;;5091553;28;20200;-71
2023/01/22 07:23:16;;;;;;;9.55;7.10;;;6.70;69.30;;;;;;5091495;28;20243;-71
2023/01/22 07:25:45;;;;;;;6.80;5.97;;;6.70;69.10;;;;;;5092001;28;20272;-70
2023/01/22 07:28:15;;;;;;;7.22;5.85;;;6.70;69.20;;;;;;5091289;28;20294;-71
2023/01/22 07:30:45;;;;;;;7.95;5.70;;;6.70;69.40;;;;;;5092015;28;20201;-71
2023/01/22 07:33:13;;;;;;;7.45;6.70;;;6.70;69.10;;;;;;5111501;28;20192;-71
2023/01/22 07:35:40;;;;;;;7.90;5.78;;;6.70;69.20;;;;;;5111879;28;20330;-70
2023/01/22 07:38:07;;;;;;;6.70;5.85;;;6.70;69.20;;;;;;5111589;28;20235;-71
2023/01/22 07:40:35;;;;;;;7.32;5.78;;;6.90;69.30;;;;;;5112161;28;20290;-71
2023/01/22 07:43:06;;;;;;;6.38;5.22;;;6.70;69.20;;;;;;5111664;28;20646;-71
2023/01/22 07:45:33;;;;;;;6.30;5.43;;;6.70;69.30;;;;;;5112269;28;20546;-72
2023/01/22 07:48:02;;;;;;;8.00;5.32;;;6.80;69.40;;;;;;5111178;28;20242;-71
2023/01/22 07:50:31;;;;;;;8.38;5.95;;;6.70;69.30;;;;;;5111727;28;20243;-71
2023/01/22 07:53:00;;;;;;;6.47;5.47;;;6.80;69.50;;;;;;5110978;28;20724;-71
2023/01/22 07:55:27;;;;;;;7.07;5.50;;;6.70;69.50;;;;;;5111945;28;20287;-71
2023/01/22 07:57:58;;;;;;;7.25;5.68;;;6.80;69.50;;;;;;5111438;28;20290;-71
2023/01/22 08:00:25;;;;;;;6.20;5.50;;;6.80;69.50;;;;;;5112029;28;20203;-71
2023/01/22 08:02:52;;;;;;;7.30;5.85;;;6.80;69.40;;;;;;5111362;28;20294;-71
2023/01/22 08:05:21;;;;;;;7.00;5.53;;;6.80;69.50;;;;;;5111508;28;20298;-71
2023/01/22 08:07:47;;;;;;;6.35;5.72;;;6.90;69.60;;;;;;5111886;28;20580;-71
2023/01/22 08:10:15;;;;;;;6.53;5.30;;;6.90;69.60;;;;;;5111314;28;20573;-71
2023/01/22 08:12:43;;;;;;;6.43;5.40;;;6.90;69.70;;;;;;5111467;28;20203;-72
2023/01/22 08:15:11;;;;;;;7.10;5.22;;;7.00;69.80;;;;;;5111098;28;20239;-70
2023/01/22 08:17:39;;;;;;;5.55;4.95;;;6.90;69.60;;;;;;5111764;28;20630;-70
2023/01/22 08:20:07;;;;;;;6.55;5.30;;;7.00;69.70;;;;;;5110714;28;20203;-71
2023/01/22 08:22:36;;;;;;;7.05;5.82;;;7.00;69.80;;;;;;5115218;28;20242;-72
2023/01/22 08:25:03;;;;;;;6.57;5.15;;;7.00;69.70;;;;;;5114966;28;20318;-72
2023/01/22 08:27:30;;;;;;;6.15;5.00;;;7.00;69.70;;;;;;5115763;28;20238;-72
2023/01/22 08:29:56;;;;;;;7.68;5.13;;;7.00;69.70;;;;;;5115058;28;20199;-72
2023/01/22 08:32:23;;;;;;;6.47;5.40;;;7.00;69.80;;;;;;5100046;28;20239;-71
2023/01/22 08:34:53;;;;;;;5.45;4.88;;;7.00;69.70;;;;;;5094670;28;20659;-71
2023/01/22 08:37:20;;;;;;;6.55;5.57;;;7.10;69.70;;;;;;5095153;28;20224;-71
2023/01/22 08:39:48;;;;;;;7.20;6.47;;;7.10;69.80;;;;;;5095111;28;20209;-72
2023/01/22 08:42:15;;;;;;;9.30;7.30;;;7.10;69.70;;;;;;5094636;28;20252;-72
2023/01/22 08:44:42;;;;;;;7.72;6.93;;;7.10;69.70;;;;;;5095324;28;20255;-72
2023/01/22 08:47:10;;;;;;;7.05;6.35;;;7.10;69.80;;;;;;5094129;28;20288;-72
2023/01/22 08:49:38;;;;;;;7.82;6.07;;;7.10;69.70;;;;;;5094555;28;20196;-72
2023/01/22 08:52:05;;;;;;;6.60;5.80;;;7.20;69.70;;;;;;5093993;28;20299;-73
2023/01/22 08:54:32;;;;;;;6.53;5.80;;;7.20;69.80;;;;;;5094819;28;20454;-71
2023/01/22 08:57:01;;;;;;;6.40;5.78;;;7.10;69.70;;;;;;5094052;28;20514;-71
2023/01/22 08:59:28;;;;;;;6.47;5.38;;;7.10;69.80;;;;;;5094777;28;20296;-73
2023/01/22 09:01:54;;;;;;;7.85;6.05;;;7.10;69.70;;;;;;5093816;28;20204;-71
2023/01/22 09:04:22;;;;;;;6.28;5.40;;;7.10;69.70;;;;;;5094336;28;20699;-72
2023/01/22 09:06:49;;;;;;;7.97;6.30;;;7.10;69.70;;;;;;5058712;28;20254;-72
2023/01/22 09:09:16;;;;;;;6.97;6.18;;;7.10;69.80;;;;;;5094142;28;20307;-71
2023/01/22 09:11:44;;;;;;;6.28;5.28;;;6.90;69.70;;;;;;5094410;28;20240;-72
2023/01/22 09:14:13;;;;;;;6.47;5.53;;;7.10;69.80;;;;;;5094093;28;20204;-72
2023/01/22 09:16:40;;;;;;;7.45;5.30;;;7.10;70.00;;;;;;5094272;28;20629;-71
2023/01/22 09:19:07;;;;;;;6.38;5.75;;;7.10;70.00;;;;;;5093593;28;20240;-72
2023/01/22 09:21:36;;;;;;;7.13;5.78;;;7.20;70.00;;;;;;5094311;28;20287;-71
2023/01/22 09:24:03;;;;;;;6.40;5.57;;;7.20;70.00;;;;;;5093326;28;20251;-71
2023/01/22 09:26:31;;;;;;;7.10;5.65;;;7.10;70.10;;;;;;5094077;28;20473;-71
2023/01/22 09:28:59;;;;;;;7.43;5.75;;;7.20;70.70;;;;;;5093305;28;20247;-72
2023/01/22 09:31:27;;;;;;;8.57;6.32;;;7.20;69.90;;;;;;5100519;28;20279;-72
2023/01/22 09:33:55;;;;;;;6.60;6.00;;;7.20;69.90;;;;;;5112926;28;20240;-71
2023/01/22 09:36:22;;;;;;;6.60;5.88;;;7.20;70.00;;;;;;5113905;28;20314;-71
2023/01/22 09:38:50;;;;;;;6.80;6.00;;;7.30;69.90;;;;;;5114445;28;20730;-71
2023/01/22 09:41:24;;;;;;;6.85;5.53;;;7.30;69.80;;;;;;5114153;28;20199;-71
2023/01/22 09:43:55;;;;;;;6.30;5.22;;;7.30;69.80;;;;;;5114483;28;20271;-71
2023/01/22 09:46:27;;;;;;;6.65;5.57;;;7.30;69.80;;;;;;5114119;28;20271;-71
2023/01/22 09:49:01;;;;;;;6.65;5.70;;;7.20;69.80;;;;;;5114279;28;20580;-70
2023/01/22 09:51:28;;;;;;;6.22;5.63;;;7.30;69.80;;;;;;5114084;28;20194;-71
2023/01/22 09:53:58;;;;;;;6.95;5.82;;;7.30;69.70;;;;;;5113933;28;20295;-71
2023/01/22 09:56:31;;;;;;;7.10;6.40;;;7.30;69.80;;;;;;5114691;28;20212;-70
2023/01/22 09:59:01;;;;;;;6.65;6.05;;;7.30;69.90;;;;;;5112889;28;20465;-71
2023/01/22 10:01:30;;;;;;;6.45;5.78;;;7.30;69.90;;;;;;5077570;28;20230;-71
2023/01/22 10:04:02;;;;;;;6.00;5.30;;;7.30;69.70;;;;;;5112987;28;20698;-70
2023/01/22 10:06:30;;;;;;;6.45;5.70;;;7.30;69.90;;;;;;5113861;28;20455;-72
2023/01/22 10:09:03;;;;;;;7.13;5.38;;;7.30;69.80;;;;;;5113445;28;20634;-73
2023/01/22 10:11:30;;;;;;;6.65;5.95;;;7.40;69.70;;;;;;5114040;28;20223;-71
2023/01/22 10:13:59;;;;;;;6.47;5.78;;;7.40;69.80;;;;;;5112990;28;20290;-73
2023/01/22 10:16:26;;;;;;;6.40;5.55;;;7.40;69.80;;;;;;5113434;28;20255;-72
2023/01/22 10:19:00;;;;;;;6.13;5.23;;;7.40;69.70;;;;;;5113240;28;20739;-72
2023/01/22 10:21:30;;;;;;;5.70;5.07;;;7.40;69.50;;;;;;5113632;28;20799;-70
2023/01/22 10:23:58;;;;;;;5.90;5.32;;;7.40;69.40;;;;;;5112477;28;20236;-72
2023/01/22 10:26:34;;;;;;;5.95;5.15;;;7.40;69.40;;;;;;5113339;28;20286;-71
2023/01/22 10:29:05;;;;;;;6.40;5.50;;;7.50;69.60;;;;;;5112690;28;20188;-70
2023/01/22 10:31:34;;;;;;;6.07;5.20;;;7.50;69.50;;;;;;5105871;28;20538;-71
2023/01/22 10:34:05;;;;;;;5.80;5.20;;;7.50;69.50;;;;;;5092067;28;20537;-71
2023/01/22 10:36:32;;;;;;;5.57;5.03;;;7.50;69.40;;;;;;5091924;28;20220;-71
2023/01/22 10:39:08;;;;;;;5.60;5.00;;;7.50;69.30;;;;;;5092071;28;20668;-70
2023/01/22 10:41:35;;;;;;;6.17;5.57;;;7.50;69.40;;;;;;5092865;28;20466;-72
2023/01/22 10:44:19;;;;;;;6.33;5.07;;;7.50;69.40;;;;;;5091619;28;20450;-70
2023/01/22 10:46:48;;;;;;;6.73;5.23;;;7.50;69.50;;;;;;5092512;28;20427;-70
2023/01/22 10:49:19;;;;;;;6.10;5.30;;;7.60;69.80;;;;;;5092123;28;20486;-72
2023/01/22 10:51:51;;;;;;;6.47;5.43;;;7.60;69.80;;;;;;5092825;28;20522;-71
2023/01/22 10:54:22;;;;;;;6.80;5.40;;;7.60;69.50;;;;;;5091968;28;20248;-71
2023/01/22 10:56:50;;;;;;;7.03;5.13;;;7.60;69.40;;;;;;5092914;28;20477;-71
2023/01/22 10:59:21;;;;;;;6.18;5.57;;;7.60;69.50;;;;;;5091891;28;20450;-71
2023/01/22 11:01:49;;;;;;;6.87;5.63;;;7.60;69.50;;;;;;5092441;28;20192;-73
2023/01/22 11:04:24;;;;;;;5.80;5.20;;;7.60;69.40;;;;;;5091710;28;20446;-72
2023/01/22 11:06:54;;;;;;;5.93;5.18;;;7.70;69.50;;;;;;5092348;28;20899;-72
2023/01/22 11:09:26;;;;;;;5.90;5.30;;;7.70;69.30;;;;;;5091566;28;20247;-72
2023/01/22 11:12:08;;;;;;;5.17;4.67;;;7.70;69.50;;;;;;5092489;28;20554;-71
2023/01/22 11:14:37;;;;;;;6.27;5.47;;;7.70;69.40;;;;;;5092645;28;20945;-73
2023/01/22 11:17:15;;;;;;;5.77;5.20;;;7.70;69.40;;;;;;5092026;28;20565;-72
2023/01/22 11:19:49;;;;;;;5.23;4.73;;;7.80;69.60;;;;;;5094319;28;20490;-71
2023/01/22 11:22:27;;;;;;;5.78;5.03;;;7.80;69.50;;;;;;5092664;28;20768;-71
2023/01/22 11:24:54;;;;;;;5.50;4.80;;;7.80;69.30;;;;;;5096607;28;20627;-70
2023/01/22 11:27:40;;;;;;;5.33;4.83;;;7.80;69.00;;;;;;5090951;28;20499;-72
2023/01/22 11:30:33;;;;;;;5.63;4.77;;;7.80;69.10;;;;;;5091561;28;20470;-70
2023/01/22 11:33:06;;;;;;;5.10;4.47;;;7.70;68.90;;;;;;5111409;28;20512;-72
2023/01/22 11:35:41;;;;;;;6.67;5.60;;;7.90;68.90;;;;;;5112167;28;20517;-72
2023/01/22 11:38:17;;;;;;;5.45;4.70;;;7.90;68.90;;;;;;5111688;28;20556;-72
2023/01/22 11:41:10;;;;;;;6.67;5.07;;;7.90;69.00;;;;;;5112209;28;20192;-70
2023/01/22 11:43:54;;;;;;;6.30;5.40;;;7.90;69.00;;;;;;5111942;28;20434;-71
2023/01/22 11:46:42;;;;;;;5.80;4.97;;;7.90;69.10;;;;;;5111610;28;20751;-73
2023/01/22 11:49:21;;;;;;;6.07;5.10;;;8.00;69.10;;;;;;5111389;28;20870;-73
2023/01/22 11:52:04;;;;;;;5.97;5.20;;;8.00;69.20;;;;;;5112530;28;20433;-70
2023/01/22 11:55:01;;;;;;;6.37;5.30;;;8.10;69.00;;;;;;5112405;28;20449;-70
2023/01/22 11:57:33;;;;;;;5.83;5.23;;;8.10;68.70;;;;;;5111632;28;20497;-73
2023/01/22 12:00:27;;;;;;;6.27;5.67;;;8.10;69.00;;;;;;5111761;28;20953;-72
2023/01/22 12:03:36;;;;;;;6.57;5.50;;;8.20;69.10;;;;;;5112058;28;20508;-72
2023/01/22 12:06:14;;;;;;;6.20;5.63;;;8.20;68.60;;;;;;5111092;28;20517;-73
2023/01/22 12:08:53;;;;;;;6.67;5.60;;;8.20;68.60;;;;;;5112051;28;20425;-73
2023/01/22 12:11:41;;;;;;;6.60;5.70;;;8.30;68.80;;;;;;5110713;28;20524;-73
2023/01/22 12:14:21;;;;;;;6.87;5.47;;;8.30;68.70;;;;;;5111281;28;20450;-72
2023/01/22 12:16:54;;;;;;;6.67;5.80;;;8.30;68.60;;;;;;5111356;28;20463;-72
2023/01/22 12:19:49;;;;;;;5.70;5.10;;;8.30;68.40;;;;;;5111258;28;20465;-72
2023/01/22 12:22:28;;;;;;;7.70;5.50;;;8.40;68.20;;;;;;5110902;28;20438;-72
2023/01/22 12:25:03;;;;;;;6.20;5.57;;;8.30;68.40;;;;;;5111334;28;20508;-72
2023/01/22 12:27:34;;;;;;;5.63;5.13;;;8.40;68.90;;;;;;5111842;28;20429;-72
2023/01/22 12:30:12;;;;;;;5.93;5.33;;;8.40;68.60;;;;;;5111485;28;20939;-72
2023/01/22 12:32:42;;;;;;;5.93;5.33;;;8.40;68.60;;;;;;5095286;28;20441;-72
2023/01/22 12:35:15;;;;;;;5.73;4.93;;;8.40;68.20;;;;;;5090543;28;20558;-72
2023/01/22 12:37:46;;;;;;;5.50;4.83;;;8.50;68.40;;;;;;5091244;28;20498;-72
2023/01/22 12:40:36;;;;;;;5.83;4.90;;;8.60;68.40;;;;;;5090398;28;20482;-72
2023/01/22 12:43:05;;;;;;;5.50;5.00;;;8.70;68.20;;;;;;5091143;28;20488;-72
2023/01/22 12:45:40;;;;;;;5.30;4.80;;;8.70;68.00;;;;;;5091187;28;20483;-72
2023/01/22 12:48:19;;;;;;;5.53;4.93;;;8.80;67.90;;;;;;5090521;28;20518;-72
2023/01/22 12:50:51;;;;;;;5.43;4.93;;;8.80;67.60;;;;;;5091167;28;20453;-71
2023/01/22 12:53:24;;;;;;;5.47;4.87;;;8.90;67.60;;;;;;5092368;28;20459;-72
2023/01/22 12:56:01;;;;;;;4.60;4.20;;;8.90;67.60;;;;;;5091256;28;20462;-71
2023/01/22 12:58:30;;;;;;;5.33;4.83;;;8.90;67.30;;;;;;5090680;28;20553;-73
2023/01/22 13:01:06;;;;;;;6.43;4.50;;;8.90;67.20;;;;;;5091181;28;20451;-71
2023/01/22 13:03:33;;;;;;;5.70;5.10;;;8.90;67.30;;;;;;5091269;28;20488;-72
2023/01/22 13:06:02;;;;;;;6.00;4.80;;;8.90;67.30;;;;;;5090947;28;20935;-72
2023/01/22 13:08:40;;;;;;;6.43;5.83;;;8.90;67.20;;;;;;5093138;28;20845;-72
2023/01/22 13:11:11;;;;;;;8.10;6.17;;;8.90;67.30;;;;;;5093870;28;20945;-72
2023/01/22 13:13:48;;;;;;;8.83;7.93;;;8.90;67.30;;;;;;5094353;28;20434;-72